createdAt,value
2018-07-28T00:01:50.675Z,12.82
2018-07-28T00:05:54.204Z,12.10
2018-07-28T00:09:57.689Z,13.60
2018-07-28T00:14:01.186Z,10.15
2018-07-28T00:18:04.689Z,9.55
2018-07-28T00:22:08.128Z,8.05
2018-07-28T00:26:18.205Z,8.33
2018-07-28T00:30:21.668Z,7.50
2018-07-28T00:34:25.133Z,7.95
2018-07-28T00:38:28.618Z,8.00
2018-07-28T00:42:32.090Z,8.30
2018-07-28T00:46:35.615Z,8.25
2018-07-28T00:50:39.101Z,9.40
2018-07-28T00:54:42.569Z,7.62
2018-07-28T00:58:45.995Z,7.37
2018-07-28T01:02:49.475Z,8.45
2018-07-28T01:06:53.018Z,8.18
2018-07-28T01:10:56.465Z,8.80
2018-07-28T01:14:59.951Z,7.67
2018-07-28T01:19:03.690Z,8.15
2018-07-28T01:23:07.165Z,7.87
2018-07-28T01:27:10.598Z,7.33
2018-07-28T01:31:14.129Z,7.97
2018-07-28T01:35:17.645Z,7.60
2018-07-28T01:39:21.101Z,7.70
2018-07-28T01:43:24.545Z,8.90
2018-07-28T01:47:28.008Z,8.43
2018-07-28T01:51:31.483Z,8.43
2018-07-28T01:55:34.946Z,8.35
2018-07-28T01:59:38.588Z,8.50
2018-07-28T02:03:41.984Z,8.63
2018-07-28T02:07:45.447Z,8.15
2018-07-28T02:11:48.958Z,9.10
2018-07-28T02:15:52.401Z,7.97
2018-07-28T02:19:55.891Z,8.25
2018-07-28T02:23:59.374Z,9.85
2018-07-28T02:28:02.849Z,9.43
2018-07-28T02:32:06.382Z,8.78
2018-07-28T02:36:09.865Z,9.45
2018-07-28T02:40:13.371Z,9.75
2018-07-28T02:44:16.810Z,9.28
2018-07-28T02:48:20.298Z,9.40
2018-07-28T02:52:23.786Z,8.33
2018-07-28T02:56:27.294Z,10.15
2018-07-28T03:00:30.854Z,9.93
2018-07-28T03:04:34.363Z,10.40
2018-07-28T03:08:37.797Z,11.97
2018-07-28T03:12:41.251Z,10.63
2018-07-28T03:16:44.799Z,10.93
2018-07-28T03:20:48.273Z,10.82
2018-07-28T03:24:51.809Z,10.38
2018-07-28T03:28:55.281Z,10.98
2018-07-28T03:32:58.810Z,10.23
2018-07-28T03:37:02.362Z,10.48
2018-07-28T03:41:05.934Z,9.75
2018-07-28T03:45:10.315Z,10.93
2018-07-28T03:49:13.828Z,11.30
2018-07-28T03:53:17.338Z,11.00
2018-07-28T03:57:20.796Z,10.68
2018-07-28T04:01:24.306Z,11.35
2018-07-28T04:05:27.808Z,10.88
2018-07-28T04:09:31.278Z,9.70
2018-07-28T04:13:34.770Z,9.85
2018-07-28T04:17:55.565Z,10.18
2018-07-28T04:21:59.019Z,10.40
2018-07-28T04:26:02.537Z,10.40
2018-07-28T04:30:06.179Z,9.73
2018-07-28T04:34:09.658Z,9.78
2018-07-28T04:38:13.181Z,9.50
2018-07-28T04:42:16.670Z,9.85
2018-07-28T04:46:20.153Z,9.83
2018-07-28T04:50:23.626Z,8.85
2018-07-28T04:54:27.084Z,9.48
2018-07-28T04:58:30.541Z,9.70
2018-07-28T05:02:34.066Z,9.75
2018-07-28T05:06:37.485Z,8.93
2018-07-28T05:10:40.998Z,9.48
2018-07-28T05:14:44.491Z,8.95
2018-07-28T05:18:47.962Z,9.30
2018-07-28T05:22:51.412Z,8.88
2018-07-28T05:26:54.914Z,9.58
2018-07-28T05:30:58.510Z,9.70
2018-07-28T05:35:01.977Z,9.65
2018-07-28T05:39:10.120Z,11.65
2018-07-28T05:43:13.595Z,10.70
2018-07-28T05:47:17.190Z,10.40
2018-07-28T05:51:20.682Z,11.10
2018-07-28T05:55:24.194Z,10.30
2018-07-28T05:59:27.661Z,11.40
2018-07-28T06:03:31.219Z,11.78
2018-07-28T06:07:34.648Z,11.05
2018-07-28T06:11:38.274Z,10.68
2018-07-28T06:15:41.785Z,11.45
2018-07-28T06:19:45.231Z,12.20
2018-07-28T06:23:48.742Z,10.93
2018-07-28T06:27:52.247Z,11.18
2018-07-28T06:31:55.746Z,12.58
2018-07-28T06:35:59.214Z,11.22
2018-07-28T06:40:02.843Z,11.45
2018-07-28T06:44:06.499Z,11.00
2018-07-28T06:48:09.988Z,11.03
2018-07-28T06:52:13.522Z,12.80
2018-07-28T06:56:17.097Z,13.13
2018-07-28T07:00:20.580Z,13.43
2018-07-28T07:04:24.047Z,13.40
2018-07-28T07:08:27.552Z,12.85
2018-07-28T07:12:31.006Z,13.08
2018-07-28T07:16:34.840Z,12.55
2018-07-28T07:20:38.427Z,12.40
2018-07-28T07:24:41.927Z,11.93
2018-07-28T07:28:46.431Z,12.60
2018-07-28T07:32:49.885Z,12.82
2018-07-28T07:36:53.420Z,13.50
2018-07-28T07:40:56.898Z,12.20
2018-07-28T07:45:00.393Z,12.35
2018-07-28T07:49:03.871Z,12.88
2018-07-28T07:53:07.449Z,12.78
2018-07-28T07:57:11.226Z,12.35
2018-07-28T08:01:14.786Z,11.70
2018-07-28T08:05:18.302Z,12.30
2018-07-28T08:09:21.745Z,11.25
2018-07-28T08:13:25.236Z,11.97
2018-07-28T08:17:28.691Z,11.50
2018-07-28T08:21:32.185Z,12.75
2018-07-28T08:25:35.639Z,12.37
2018-07-28T08:29:39.142Z,11.40
2018-07-28T08:33:42.609Z,12.73
2018-07-28T08:37:46.140Z,11.83
2018-07-28T08:41:49.629Z,11.63
2018-07-28T08:45:53.053Z,11.50
2018-07-28T08:49:56.590Z,11.28
2018-07-28T08:54:00.103Z,11.68
2018-07-28T08:58:03.623Z,10.38
2018-07-28T09:02:07.179Z,12.13
2018-07-28T09:06:10.647Z,11.85
2018-07-28T09:10:14.227Z,11.57
2018-07-28T09:14:17.738Z,12.35
2018-07-28T09:18:21.227Z,11.57
2018-07-28T09:22:24.804Z,11.35
2018-07-28T09:26:28.258Z,11.83
2018-07-28T09:30:31.765Z,11.25
2018-07-28T09:34:35.226Z,13.28
2018-07-28T09:38:38.728Z,11.70
2018-07-28T09:42:42.166Z,12.35
2018-07-28T09:46:45.656Z,12.30
2018-07-28T09:50:49.187Z,11.12
2018-07-28T09:54:52.990Z,11.63
2018-07-28T09:58:56.644Z,12.58
2018-07-28T10:03:00.279Z,11.85
2018-07-28T10:07:03.855Z,11.97
2018-07-28T10:11:07.371Z,12.55
2018-07-28T10:15:10.903Z,12.98
2018-07-28T10:19:14.534Z,11.33
2018-07-28T10:23:18.207Z,11.95
2018-07-28T10:27:21.798Z,12.47
2018-07-28T10:31:25.387Z,10.90
2018-07-28T10:35:28.898Z,11.10
2018-07-28T10:39:32.409Z,10.50
2018-07-28T10:43:36.070Z,10.15
2018-07-28T10:47:39.661Z,10.00
2018-07-28T10:51:43.245Z,10.63
2018-07-28T10:55:46.731Z,10.10
2018-07-28T10:59:50.194Z,9.90
2018-07-28T11:03:53.819Z,10.98
2018-07-28T11:07:57.291Z,10.98
2018-07-28T11:12:01.089Z,9.70
2018-07-28T11:16:04.721Z,10.40
2018-07-28T11:20:09.891Z,11.08
2018-07-28T11:24:13.366Z,11.05
2018-07-28T11:28:19.499Z,9.28
2018-07-28T11:32:34.251Z,9.23
2018-07-28T11:36:48.974Z,9.18
2018-07-28T11:41:03.597Z,8.45
2018-07-28T11:45:15.798Z,8.25
2018-07-28T11:49:19.267Z,8.60
2018-07-28T11:53:22.755Z,8.23
2018-07-28T11:57:26.244Z,7.97
2018-07-28T12:01:29.694Z,8.03
2018-07-28T12:05:33.300Z,7.90
2018-07-28T12:09:36.810Z,8.10
2018-07-28T12:13:40.300Z,7.70
2018-07-28T12:17:43.842Z,7.25
2018-07-28T12:21:47.303Z,7.10
2018-07-28T12:25:50.794Z,7.47
2018-07-28T12:29:54.273Z,7.65
2018-07-28T12:33:57.726Z,7.03
2018-07-28T12:38:01.269Z,6.75
2018-07-28T12:42:04.869Z,5.80
2018-07-28T12:46:08.407Z,5.75
2018-07-28T12:50:11.873Z,6.62
2018-07-28T12:54:15.376Z,6.10
2018-07-28T12:58:18.951Z,6.15
2018-07-28T13:02:22.410Z,6.03
2018-07-28T13:06:25.878Z,6.08
2018-07-28T13:10:29.346Z,6.60
2018-07-28T13:14:32.802Z,6.47
2018-07-28T13:18:36.316Z,6.55
2018-07-28T13:22:39.783Z,5.92
2018-07-28T13:26:43.316Z,6.62
2018-07-28T13:30:46.815Z,6.22
2018-07-28T13:34:50.362Z,6.58
2018-07-28T13:38:53.853Z,5.87
2018-07-28T13:42:57.299Z,6.50
2018-07-28T13:47:00.786Z,6.20
2018-07-28T13:51:04.217Z,6.65
2018-07-28T13:55:07.752Z,6.45
2018-07-28T13:59:11.488Z,7.55
2018-07-28T14:03:14.971Z,6.90
2018-07-28T14:07:18.717Z,7.30
2018-07-28T14:11:22.212Z,6.50
2018-07-28T14:15:25.685Z,6.30
2018-07-28T14:19:29.184Z,5.67
2018-07-28T14:23:32.691Z,5.42
2018-07-28T14:27:36.586Z,5.70
2018-07-28T14:31:40.244Z,6.00
2018-07-28T14:35:43.723Z,5.72
2018-07-28T14:39:47.277Z,5.60
2018-07-28T14:43:50.957Z,5.30
2018-07-28T14:47:54.597Z,5.40
2018-07-28T14:51:58.102Z,5.20
2018-07-28T14:56:01.568Z,5.00
2018-07-28T15:00:06.047Z,4.75
2018-07-28T15:04:09.603Z,5.00
2018-07-28T15:08:13.053Z,5.17
2018-07-28T15:12:16.574Z,5.15
2018-07-28T15:16:20.038Z,6.28
2018-07-28T15:20:23.571Z,5.83
2018-07-28T15:24:27.053Z,5.22
2018-07-28T15:28:30.592Z,5.65
2018-07-28T15:32:34.135Z,5.95
2018-07-28T15:36:37.833Z,6.40
2018-07-28T15:40:41.739Z,7.00
2018-07-28T15:44:45.311Z,6.58
2018-07-28T15:48:49.132Z,6.92
2018-07-28T15:52:52.742Z,6.78
2018-07-28T15:56:56.488Z,7.35
2018-07-28T16:01:00.111Z,7.33
2018-07-28T16:05:03.732Z,7.30
2018-07-28T16:09:09.498Z,7.80
2018-07-28T16:13:13.130Z,7.55
2018-07-28T16:17:16.900Z,7.55
2018-07-28T16:21:20.478Z,7.08
2018-07-28T16:25:24.170Z,6.90
2018-07-28T16:29:29.374Z,7.83
2018-07-28T16:33:32.951Z,7.37
2018-07-28T16:37:36.993Z,7.20
2018-07-28T16:41:40.801Z,7.55
2018-07-28T16:45:44.535Z,7.78
2018-07-28T16:49:48.172Z,8.15
2018-07-28T16:53:51.882Z,7.65
2018-07-28T16:57:55.506Z,7.70
2018-07-28T17:01:59.115Z,7.92
2018-07-28T17:06:02.799Z,7.83
2018-07-28T17:10:06.645Z,7.58
2018-07-28T17:14:10.511Z,7.90
2018-07-28T17:18:14.074Z,7.22
2018-07-28T17:22:18.001Z,7.55
2018-07-28T17:26:21.590Z,8.38
2018-07-28T17:30:25.332Z,8.28
2018-07-28T17:34:28.980Z,7.65
2018-07-28T17:38:33.180Z,8.20
2018-07-28T17:42:36.984Z,8.20
2018-07-28T17:46:40.766Z,8.60
2018-07-28T17:50:44.291Z,8.75
2018-07-28T17:54:48.119Z,9.38
2018-07-28T17:58:51.723Z,9.58
2018-07-28T18:02:55.329Z,8.83
2018-07-28T18:06:58.989Z,8.90
2018-07-28T18:11:02.646Z,9.83
2018-07-28T18:15:06.386Z,9.40
2018-07-28T18:19:09.921Z,10.28
2018-07-28T18:23:13.416Z,10.90
2018-07-28T18:27:16.937Z,9.55
2018-07-28T18:31:20.509Z,9.93
2018-07-28T18:35:23.947Z,9.83
2018-07-28T18:39:27.430Z,9.78
2018-07-28T18:43:30.917Z,9.48
2018-07-28T18:47:34.387Z,9.53
2018-07-28T18:51:37.882Z,10.28
2018-07-28T18:55:41.316Z,10.13
2018-07-28T18:59:45.107Z,10.00
2018-07-28T19:03:48.952Z,10.50
2018-07-28T19:07:52.670Z,10.23
2018-07-28T19:11:56.529Z,9.80
2018-07-28T19:16:00.240Z,10.40
2018-07-28T19:20:04.171Z,10.05
2018-07-28T19:24:08.084Z,10.35
2018-07-28T19:28:17.120Z,10.08
2018-07-28T19:32:20.917Z,10.60
2018-07-28T19:36:29.921Z,11.20
2018-07-28T19:40:34.062Z,10.82
2018-07-28T19:44:38.705Z,10.13
2018-07-28T19:48:42.709Z,10.03
2018-07-28T19:52:46.777Z,9.45
2018-07-28T19:56:50.937Z,9.48
2018-07-28T20:00:55.012Z,9.75
2018-07-28T20:04:58.936Z,9.10
2018-07-28T20:09:03.194Z,9.08
2018-07-28T20:13:07.440Z,8.90
2018-07-28T20:17:11.496Z,9.73
2018-07-28T20:21:15.458Z,9.05
2018-07-28T20:25:19.336Z,8.70
2018-07-28T20:29:23.527Z,9.38
2018-07-28T20:33:28.481Z,9.40
2018-07-28T20:37:32.518Z,10.30
2018-07-28T20:41:36.573Z,9.53
2018-07-28T20:45:40.809Z,8.55
2018-07-28T20:49:44.938Z,10.28
2018-07-28T20:53:48.948Z,9.70
2018-07-28T20:57:53.057Z,10.32
2018-07-28T21:01:57.090Z,10.08
2018-07-28T21:06:01.615Z,10.38
2018-07-28T21:10:05.711Z,10.75
2018-07-28T21:14:09.742Z,10.25
2018-07-28T21:18:13.889Z,11.28
2018-07-28T21:22:18.012Z,10.40
2018-07-28T21:26:22.149Z,11.28
2018-07-28T21:30:26.604Z,10.88
2018-07-28T21:34:30.892Z,10.38
2018-07-28T21:38:35.284Z,10.30
2018-07-28T21:42:38.817Z,10.88
2018-07-28T21:46:42.289Z,11.40
2018-07-28T21:50:45.820Z,11.48
2018-07-28T21:54:49.483Z,11.57
2018-07-28T21:58:54.538Z,11.45
2018-07-28T22:02:58.018Z,13.68
2018-07-28T22:07:01.473Z,11.88
2018-07-28T22:11:04.937Z,11.78
2018-07-28T22:15:08.358Z,11.15
2018-07-28T22:19:11.795Z,11.95
2018-07-28T22:23:16.270Z,11.05
2018-07-28T22:27:19.762Z,11.48
2018-07-28T22:31:23.185Z,11.90
2018-07-28T22:35:26.679Z,12.28
2018-07-28T22:39:30.155Z,11.15
2018-07-28T22:43:33.617Z,11.18
2018-07-28T22:47:37.113Z,11.83
2018-07-28T22:51:40.647Z,10.90
2018-07-28T22:55:44.110Z,10.60
2018-07-28T22:59:47.576Z,10.50
2018-07-28T23:03:51.053Z,11.18
2018-07-28T23:07:54.575Z,10.32
2018-07-28T23:11:58.051Z,10.32
2018-07-28T23:16:01.554Z,11.15
2018-07-28T23:20:05.716Z,10.65
2018-07-28T23:24:09.194Z,9.88
2018-07-28T23:28:12.636Z,10.00
2018-07-28T23:32:16.167Z,8.98
2018-07-28T23:36:19.658Z,8.68
2018-07-28T23:40:23.123Z,8.43
2018-07-28T23:44:26.620Z,8.63
2018-07-28T23:48:30.122Z,8.45
2018-07-28T23:52:33.631Z,8.65
2018-07-28T23:56:37.132Z,8.15
